sensor_id;sensor_type;location;lat;lon;timestamp;P1;durP1;ratioP1;P2;durP2;ratioP2
26502;SDS011;14177;51.520;6.764;2023-06-05T00:01:45;1.90;;;1.17;;
26502;SDS011;14177;51.520;6.764;2023-06-05T00:04:19;3.28;;;1.50;;
26502;SDS011;14177;51.520;6.764;2023-06-05T00:07:06;3.70;;;1.60;;
26502;SDS011;14177;51.520;6.764;2023-06-05T00:18:21;6.55;;;1.50;;
26502;SDS011;14177;51.520;6.764;2023-06-05T00:21:16;3.72;;;1.55;;
26502;SDS011;14177;51.520;6.764;2023-06-05T00:24:00;2.90;;;1.52;;
26502;SDS011;14177;51.520;6.764;2023-06-05T00:26:43;4.00;;;1.60;;
26502;SDS011;14177;51.520;6.764;2023-06-05T00:30:45;2.70;;;1.73;;
26502;SDS011;14177;51.520;6.764;2023-06-05T00:33:30;2.90;;;1.33;;
26502;SDS011;14177;51.520;6.764;2023-06-05T00:36:09;3.42;;;1.70;;
26502;SDS011;14177;51.520;6.764;2023-06-05T00:38:57;4.72;;;1.35;;
26502;SDS011;14177;51.520;6.764;2023-06-05T00:41:36;6.30;;;1.60;;
26502;SDS011;14177;51.520;6.764;2023-06-05T00:45:25;4.32;;;1.45;;
26502;SDS011;14177;51.520;6.764;2023-06-05T00:52:35;5.90;;;1.40;;
26502;SDS011;14177;51.520;6.764;2023-06-05T00:55:02;3.65;;;1.75;;
26502;SDS011;14177;51.520;6.764;2023-06-05T00:57:30;3.38;;;1.48;;
26502;SDS011;14177;51.520;6.764;2023-06-05T01:00:00;4.88;;;1.92;;
26502;SDS011;14177;51.520;6.764;2023-06-05T01:02:28;4.35;;;1.48;;
26502;SDS011;14177;51.520;6.764;2023-06-05T01:04:55;3.33;;;1.92;;
26502;SDS011;14177;51.520;6.764;2023-06-05T01:07:23;6.25;;;1.70;;
26502;SDS011;14177;51.520;6.764;2023-06-05T01:09:50;3.45;;;1.50;;
26502;SDS011;14177;51.520;6.764;2023-06-05T01:12:20;7.25;;;1.98;;
26502;SDS011;14177;51.520;6.764;2023-06-05T01:15:36;3.22;;;1.42;;
26502;SDS011;14177;51.520;6.764;2023-06-05T01:18:05;2.95;;;1.42;;
26502;SDS011;14177;51.520;6.764;2023-06-05T01:20:33;6.22;;;1.60;;
26502;SDS011;14177;51.520;6.764;2023-06-05T01:23:05;2.65;;;1.52;;
26502;SDS011;14177;51.520;6.764;2023-06-05T01:25:33;6.25;;;1.80;;
26502;SDS011;14177;51.520;6.764;2023-06-05T01:28:07;5.13;;;1.65;;
26502;SDS011;14177;51.520;6.764;2023-06-05T01:31:05;3.63;;;1.80;;
26502;SDS011;14177;51.520;6.764;2023-06-05T01:33:54;5.78;;;1.67;;
26502;SDS011;14177;51.520;6.764;2023-06-05T01:36:28;4.75;;;1.90;;
26502;SDS011;14177;51.520;6.764;2023-06-05T01:38:58;5.20;;;1.75;;
26502;SDS011;14177;51.520;6.764;2023-06-05T01:41:27;4.72;;;2.20;;
26502;SDS011;14177;51.520;6.764;2023-06-05T01:43:55;7.53;;;1.75;;
26502;SDS011;14177;51.520;6.764;2023-06-05T01:46:23;3.88;;;1.75;;
26502;SDS011;14177;51.520;6.764;2023-06-05T01:48:51;3.92;;;1.55;;
26502;SDS011;14177;51.520;6.764;2023-06-05T01:51:20;4.22;;;1.88;;
26502;SDS011;14177;51.520;6.764;2023-06-05T01:53:48;5.18;;;1.80;;
26502;SDS011;14177;51.520;6.764;2023-06-05T01:56:16;4.30;;;1.77;;
26502;SDS011;14177;51.520;6.764;2023-06-05T01:58:46;3.95;;;1.83;;
26502;SDS011;14177;51.520;6.764;2023-06-05T02:01:14;5.30;;;2.08;;
26502;SDS011;14177;51.520;6.764;2023-06-05T02:03:42;4.75;;;2.00;;
26502;SDS011;14177;51.520;6.764;2023-06-05T02:06:16;3.88;;;1.88;;
26502;SDS011;14177;51.520;6.764;2023-06-05T02:08:43;3.72;;;1.77;;
26502;SDS011;14177;51.520;6.764;2023-06-05T02:11:10;6.10;;;2.15;;
26502;SDS011;14177;51.520;6.764;2023-06-05T02:13:41;4.43;;;1.98;;
26502;SDS011;14177;51.520;6.764;2023-06-05T02:16:10;3.33;;;1.98;;
26502;SDS011;14177;51.520;6.764;2023-06-05T02:18:38;6.97;;;1.95;;
26502;SDS011;14177;51.520;6.764;2023-06-05T02:21:05;3.92;;;1.92;;
26502;SDS011;14177;51.520;6.764;2023-06-05T02:23:32;3.38;;;2.03;;
26502;SDS011;14177;51.520;6.764;2023-06-05T02:26:00;3.80;;;2.15;;
26502;SDS011;14177;51.520;6.764;2023-06-05T02:28:27;4.20;;;2.03;;
26502;SDS011;14177;51.520;6.764;2023-06-05T02:30:54;7.53;;;2.30;;
26502;SDS011;14177;51.520;6.764;2023-06-05T02:33:21;5.15;;;2.05;;
26502;SDS011;14177;51.520;6.764;2023-06-05T02:35:50;6.80;;;1.98;;
26502;SDS011;14177;51.520;6.764;2023-06-05T02:38:18;4.75;;;1.95;;
26502;SDS011;14177;51.520;6.764;2023-06-05T02:40:46;4.80;;;2.40;;
26502;SDS011;14177;51.520;6.764;2023-06-05T02:43:13;5.85;;;2.33;;
26502;SDS011;14177;51.520;6.764;2023-06-05T02:45:41;4.07;;;1.80;;
26502;SDS011;14177;51.520;6.764;2023-06-05T02:48:10;5.25;;;1.88;;
26502;SDS011;14177;51.520;6.764;2023-06-05T02:50:55;6.28;;;2.00;;
26502;SDS011;14177;51.520;6.764;2023-06-05T02:53:47;4.03;;;1.95;;
26502;SDS011;14177;51.520;6.764;2023-06-05T02:56:29;3.50;;;2.10;;
26502;SDS011;14177;51.520;6.764;2023-06-05T02:59:45;5.07;;;1.90;;
26502;SDS011;14177;51.520;6.764;2023-06-05T03:02:19;3.33;;;2.10;;
26502;SDS011;14177;51.520;6.764;2023-06-05T03:05:23;3.78;;;2.15;;
26502;SDS011;14177;51.520;6.764;2023-06-05T03:08:29;5.13;;;2.10;;
26502;SDS011;14177;51.520;6.764;2023-06-05T03:15:34;5.03;;;2.30;;
26502;SDS011;14177;51.520;6.764;2023-06-05T03:18:13;3.53;;;2.08;;
26502;SDS011;14177;51.520;6.764;2023-06-05T03:21:07;3.38;;;2.20;;
26502;SDS011;14177;51.520;6.764;2023-06-05T03:25:14;3.90;;;1.92;;
26502;SDS011;14177;51.520;6.764;2023-06-05T03:37:53;3.67;;;2.08;;
26502;SDS011;14177;51.520;6.764;2023-06-05T03:41:26;7.18;;;2.30;;
26502;SDS011;14177;51.520;6.764;2023-06-05T03:48:24;3.95;;;2.42;;
26502;SDS011;14177;51.520;6.764;2023-06-05T03:51:38;6.38;;;2.75;;
26502;SDS011;14177;51.520;6.764;2023-06-05T03:55:14;4.80;;;2.97;;
26502;SDS011;14177;51.520;6.764;2023-06-05T03:57:46;5.07;;;2.40;;
26502;SDS011;14177;51.520;6.764;2023-06-05T04:00:22;6.13;;;2.78;;
26502;SDS011;14177;51.520;6.764;2023-06-05T04:02:59;5.60;;;2.80;;
26502;SDS011;14177;51.520;6.764;2023-06-05T04:05:39;5.90;;;2.78;;
26502;SDS011;14177;51.520;6.764;2023-06-05T04:08:48;5.35;;;2.80;;
26502;SDS011;14177;51.520;6.764;2023-06-05T04:11:29;6.68;;;2.97;;
26502;SDS011;14177;51.520;6.764;2023-06-05T04:14:10;4.55;;;2.40;;
26502;SDS011;14177;51.520;6.764;2023-06-05T04:16:39;6.97;;;3.47;;
26502;SDS011;14177;51.520;6.764;2023-06-05T04:19:13;5.22;;;2.70;;
26502;SDS011;14177;51.520;6.764;2023-06-05T04:21:43;7.00;;;3.10;;
26502;SDS011;14177;51.520;6.764;2023-06-05T04:24:11;5.10;;;3.10;;
26502;SDS011;14177;51.520;6.764;2023-06-05T04:26:39;5.18;;;3.00;;
26502;SDS011;14177;51.520;6.764;2023-06-05T04:29:10;7.63;;;3.33;;
26502;SDS011;14177;51.520;6.764;2023-06-05T04:31:43;6.75;;;3.10;;
26502;SDS011;14177;51.520;6.764;2023-06-05T04:34:14;8.88;;;3.45;;
26502;SDS011;14177;51.520;6.764;2023-06-05T04:36:44;4.90;;;2.80;;
26502;SDS011;14177;51.520;6.764;2023-06-05T04:39:13;6.13;;;3.22;;
26502;SDS011;14177;51.520;6.764;2023-06-05T04:41:42;4.85;;;3.28;;
26502;SDS011;14177;51.520;6.764;2023-06-05T04:44:22;8.13;;;3.53;;
26502;SDS011;14177;51.520;6.764;2023-06-05T04:46:49;5.60;;;3.30;;
26502;SDS011;14177;51.520;6.764;2023-06-05T04:49:18;7.97;;;3.50;;
26502;SDS011;14177;51.520;6.764;2023-06-05T04:51:46;6.15;;;3.28;;
26502;SDS011;14177;51.520;6.764;2023-06-05T04:54:14;8.85;;;4.57;;
26502;SDS011;14177;51.520;6.764;2023-06-05T04:56:41;5.53;;;3.88;;
26502;SDS011;14177;51.520;6.764;2023-06-05T04:59:11;7.30;;;3.78;;
26502;SDS011;14177;51.520;6.764;2023-06-05T05:01:38;4.97;;;3.40;;
26502;SDS011;14177;51.520;6.764;2023-06-05T05:04:07;5.80;;;3.50;;
26502;SDS011;14177;51.520;6.764;2023-06-05T05:06:35;7.18;;;3.55;;
26502;SDS011;14177;51.520;6.764;2023-06-05T05:09:02;4.68;;;3.00;;
26502;SDS011;14177;51.520;6.764;2023-06-05T05:11:32;6.70;;;3.40;;
26502;SDS011;14177;51.520;6.764;2023-06-05T05:13:59;7.57;;;3.50;;
26502;SDS011;14177;51.520;6.764;2023-06-05T05:16:27;7.80;;;3.20;;
26502;SDS011;14177;51.520;6.764;2023-06-05T05:18:56;6.47;;;3.72;;
26502;SDS011;14177;51.520;6.764;2023-06-05T05:21:24;5.63;;;3.10;;
26502;SDS011;14177;51.520;6.764;2023-06-05T05:23:52;7.60;;;3.67;;
26502;SDS011;14177;51.520;6.764;2023-06-05T05:26:20;7.70;;;3.90;;
26502;SDS011;14177;51.520;6.764;2023-06-05T05:28:48;8.25;;;4.00;;
26502;SDS011;14177;51.520;6.764;2023-06-05T05:31:16;8.18;;;4.00;;
26502;SDS011;14177;51.520;6.764;2023-06-05T05:33:45;4.93;;;3.28;;
26502;SDS011;14177;51.520;6.764;2023-06-05T05:36:12;5.07;;;3.20;;
26502;SDS011;14177;51.520;6.764;2023-06-05T05:38:41;7.22;;;3.70;;
26502;SDS011;14177;51.520;6.764;2023-06-05T05:41:08;9.13;;;3.67;;
26502;SDS011;14177;51.520;6.764;2023-06-05T05:43:35;7.03;;;3.92;;
26502;SDS011;14177;51.520;6.764;2023-06-05T05:46:02;9.70;;;3.55;;
26502;SDS011;14177;51.520;6.764;2023-06-05T05:48:30;5.93;;;3.60;;
26502;SDS011;14177;51.520;6.764;2023-06-05T05:50:57;7.43;;;3.58;;
26502;SDS011;14177;51.520;6.764;2023-06-05T05:53:24;6.63;;;3.72;;
26502;SDS011;14177;51.520;6.764;2023-06-05T05:55:51;7.03;;;3.63;;
26502;SDS011;14177;51.520;6.764;2023-06-05T05:58:19;5.07;;;3.30;;
26502;SDS011;14177;51.520;6.764;2023-06-05T06:00:47;7.10;;;3.45;;
26502;SDS011;14177;51.520;6.764;2023-06-05T06:03:15;7.95;;;3.80;;
26502;SDS011;14177;51.520;6.764;2023-06-05T06:05:44;5.85;;;3.60;;
26502;SDS011;14177;51.520;6.764;2023-06-05T06:08:11;5.97;;;3.38;;
26502;SDS011;14177;51.520;6.764;2023-06-05T06:10:38;8.43;;;4.18;;
26502;SDS011;14177;51.520;6.764;2023-06-05T06:13:06;5.85;;;3.53;;
26502;SDS011;14177;51.520;6.764;2023-06-05T06:15:33;8.35;;;4.18;;
26502;SDS011;14177;51.520;6.764;2023-06-05T06:18:03;10.25;;;3.80;;
26502;SDS011;14177;51.520;6.764;2023-06-05T06:20:32;7.88;;;3.88;;
26502;SDS011;14177;51.520;6.764;2023-06-05T06:23:02;5.97;;;3.38;;
26502;SDS011;14177;51.520;6.764;2023-06-05T06:25:29;8.68;;;3.85;;
26502;SDS011;14177;51.520;6.764;2023-06-05T06:27:58;7.30;;;4.15;;
26502;SDS011;14177;51.520;6.764;2023-06-05T06:30:27;5.93;;;3.83;;
26502;SDS011;14177;51.520;6.764;2023-06-05T06:32:55;9.82;;;3.97;;
26502;SDS011;14177;51.520;6.764;2023-06-05T06:35:26;5.65;;;3.63;;
26502;SDS011;14177;51.520;6.764;2023-06-05T06:37:54;6.82;;;4.07;;
26502;SDS011;14177;51.520;6.764;2023-06-05T06:40:22;7.00;;;3.78;;
26502;SDS011;14177;51.520;6.764;2023-06-05T06:42:50;8.40;;;3.83;;
26502;SDS011;14177;51.520;6.764;2023-06-05T06:45:26;6.28;;;4.32;;
26502;SDS011;14177;51.520;6.764;2023-06-05T06:47:53;10.65;;;4.13;;
26502;SDS011;14177;51.520;6.764;2023-06-05T06:50:34;8.98;;;4.40;;
26502;SDS011;14177;51.520;6.764;2023-06-05T06:53:01;8.70;;;4.40;;
26502;SDS011;14177;51.520;6.764;2023-06-05T06:55:28;8.88;;;4.65;;
26502;SDS011;14177;51.520;6.764;2023-06-05T06:58:17;11.15;;;4.30;;
26502;SDS011;14177;51.520;6.764;2023-06-05T07:00:57;9.48;;;4.03;;
26502;SDS011;14177;51.520;6.764;2023-06-05T07:03:28;9.05;;;4.05;;
26502;SDS011;14177;51.520;6.764;2023-06-05T07:06:11;11.32;;;4.47;;
26502;SDS011;14177;51.520;6.764;2023-06-05T07:08:44;6.72;;;4.50;;
26502;SDS011;14177;51.520;6.764;2023-06-05T07:11:13;7.80;;;4.40;;
26502;SDS011;14177;51.520;6.764;2023-06-05T07:13:45;8.25;;;4.45;;
26502;SDS011;14177;51.520;6.764;2023-06-05T07:16:15;8.50;;;4.53;;
26502;SDS011;14177;51.520;6.764;2023-06-05T07:18:45;8.05;;;4.47;;
26502;SDS011;14177;51.520;6.764;2023-06-05T07:21:37;9.93;;;4.50;;
26502;SDS011;14177;51.520;6.764;2023-06-05T07:24:14;11.40;;;4.90;;
26502;SDS011;14177;51.520;6.764;2023-06-05T07:26:47;8.90;;;4.60;;
26502;SDS011;14177;51.520;6.764;2023-06-05T07:29:28;10.13;;;4.63;;
26502;SDS011;14177;51.520;6.764;2023-06-05T07:32:54;12.50;;;5.07;;
26502;SDS011;14177;51.520;6.764;2023-06-05T07:36:07;12.15;;;4.88;;
26502;SDS011;14177;51.520;6.764;2023-06-05T07:39:10;7.90;;;4.88;;
26502;SDS011;14177;51.520;6.764;2023-06-05T07:46:11;10.77;;;4.40;;
26502;SDS011;14177;51.520;6.764;2023-06-05T07:49:07;8.05;;;4.07;;
26502;SDS011;14177;51.520;6.764;2023-06-05T07:51:40;7.78;;;4.10;;
26502;SDS011;14177;51.520;6.764;2023-06-05T07:54:35;17.00;;;4.50;;
26502;SDS011;14177;51.520;6.764;2023-06-05T07:57:04;8.07;;;4.00;;
26502;SDS011;14177;51.520;6.764;2023-06-05T07:59:34;8.60;;;4.28;;
26502;SDS011;14177;51.520;6.764;2023-06-05T08:02:01;10.55;;;4.40;;
26502;SDS011;14177;51.520;6.764;2023-06-05T08:04:29;7.93;;;4.13;;
26502;SDS011;14177;51.520;6.764;2023-06-05T08:06:56;7.40;;;3.85;;
26502;SDS011;14177;51.520;6.764;2023-06-05T08:09:23;5.68;;;3.53;;
26502;SDS011;14177;51.520;6.764;2023-06-05T08:11:50;11.50;;;3.78;;
26502;SDS011;14177;51.520;6.764;2023-06-05T08:14:18;8.52;;;3.53;;
26502;SDS011;14177;51.520;6.764;2023-06-05T08:16:45;5.85;;;3.70;;
26502;SDS011;14177;51.520;6.764;2023-06-05T08:19:12;7.28;;;3.38;;
26502;SDS011;14177;51.520;6.764;2023-06-05T08:21:40;8.73;;;3.90;;
26502;SDS011;14177;51.520;6.764;2023-06-05T08:24:07;10.70;;;3.55;;
26502;SDS011;14177;51.520;6.764;2023-06-05T08:26:35;8.65;;;3.88;;
26502;SDS011;14177;51.520;6.764;2023-06-05T08:29:02;5.10;;;3.30;;
26502;SDS011;14177;51.520;6.764;2023-06-05T08:31:29;7.60;;;3.22;;
26502;SDS011;14177;51.520;6.764;2023-06-05T08:34:00;7.75;;;3.97;;
26502;SDS011;14177;51.520;6.764;2023-06-05T08:36:27;9.88;;;4.20;;
26502;SDS011;14177;51.520;6.764;2023-06-05T08:38:55;7.50;;;3.55;;
26502;SDS011;14177;51.520;6.764;2023-06-05T08:41:22;7.82;;;3.50;;
26502;SDS011;14177;51.520;6.764;2023-06-05T08:43:50;6.55;;;3.53;;
26502;SDS011;14177;51.520;6.764;2023-06-05T08:46:18;6.80;;;2.90;;
26502;SDS011;14177;51.520;6.764;2023-06-05T08:48:48;8.63;;;3.05;;
26502;SDS011;14177;51.520;6.764;2023-06-05T08:51:18;4.53;;;2.70;;
26502;SDS011;14177;51.520;6.764;2023-06-05T08:54:04;5.90;;;3.47;;
26502;SDS011;14177;51.520;6.764;2023-06-05T08:56:36;5.78;;;3.20;;
26502;SDS011;14177;51.520;6.764;2023-06-05T08:59:04;5.43;;;2.80;;
26502;SDS011;14177;51.520;6.764;2023-06-05T09:01:34;8.60;;;2.55;;
26502;SDS011;14177;51.520;6.764;2023-06-05T09:04:04;5.65;;;2.97;;
26502;SDS011;14177;51.520;6.764;2023-06-05T09:06:31;5.03;;;3.15;;
26502;SDS011;14177;51.520;6.764;2023-06-05T09:09:02;8.10;;;2.80;;
26502;SDS011;14177;51.520;6.764;2023-06-05T09:11:30;8.43;;;2.72;;
26502;SDS011;14177;51.520;6.764;2023-06-05T09:13:59;6.03;;;2.78;;
26502;SDS011;14177;51.520;6.764;2023-06-05T09:16:32;4.90;;;2.60;;
26502;SDS011;14177;51.520;6.764;2023-06-05T09:19:09;7.93;;;3.20;;
26502;SDS011;14177;51.520;6.764;2023-06-05T09:21:38;8.90;;;3.05;;
26502;SDS011;14177;51.520;6.764;2023-06-05T09:26:45;4.53;;;2.15;;
26502;SDS011;14177;51.520;6.764;2023-06-05T09:31:52;4.63;;;2.97;;
26502;SDS011;14177;51.520;6.764;2023-06-05T09:37:10;6.05;;;2.92;;
26502;SDS011;14177;51.520;6.764;2023-06-05T09:39:40;6.50;;;2.65;;
26502;SDS011;14177;51.520;6.764;2023-06-05T09:42:12;7.13;;;2.70;;
26502;SDS011;14177;51.520;6.764;2023-06-05T09:44:39;9.77;;;2.88;;
26502;SDS011;14177;51.520;6.764;2023-06-05T09:47:07;5.30;;;2.38;;
26502;SDS011;14177;51.520;6.764;2023-06-05T09:52:08;12.45;;;2.83;;
26502;SDS011;14177;51.520;6.764;2023-06-05T09:54:38;7.93;;;2.50;;
26502;SDS011;14177;51.520;6.764;2023-06-05T09:57:08;5.60;;;2.00;;
26502;SDS011;14177;51.520;6.764;2023-06-05T09:59:43;3.55;;;2.08;;
26502;SDS011;14177;51.520;6.764;2023-06-05T10:02:23;4.55;;;2.15;;
26502;SDS011;14177;51.520;6.764;2023-06-05T10:05:03;4.78;;;2.22;;
26502;SDS011;14177;51.520;6.764;2023-06-05T10:08:12;3.53;;;2.10;;
26502;SDS011;14177;51.520;6.764;2023-06-05T10:10:49;3.47;;;2.10;;
26502;SDS011;14177;51.520;6.764;2023-06-05T10:13:48;6.38;;;2.10;;
26502;SDS011;14177;51.520;6.764;2023-06-05T10:16:30;6.78;;;2.20;;
26502;SDS011;14177;51.520;6.764;2023-06-05T10:19:01;3.83;;;1.83;;
26502;SDS011;14177;51.520;6.764;2023-06-05T10:21:34;4.60;;;1.95;;
26502;SDS011;14177;51.520;6.764;2023-06-05T10:24:13;3.90;;;2.08;;
26502;SDS011;14177;51.520;6.764;2023-06-05T10:38:48;3.60;;;1.88;;
26502;SDS011;14177;51.520;6.764;2023-06-05T10:41:37;7.22;;;1.80;;
26502;SDS011;14177;51.520;6.764;2023-06-05T10:44:13;3.35;;;1.90;;
26502;SDS011;14177;51.520;6.764;2023-06-05T10:46:48;7.65;;;2.25;;
26502;SDS011;14177;51.520;6.764;2023-06-05T10:49:50;5.45;;;1.67;;
26502;SDS011;14177;51.520;6.764;2023-06-05T10:52:54;4.55;;;1.90;;
26502;SDS011;14177;51.520;6.764;2023-06-05T10:55:40;7.90;;;2.10;;
26502;SDS011;14177;51.520;6.764;2023-06-05T10:58:28;3.08;;;1.63;;
26502;SDS011;14177;51.520;6.764;2023-06-05T11:01:15;5.65;;;2.15;;
26502;SDS011;14177;51.520;6.764;2023-06-05T11:03:54;5.18;;;1.83;;
26502;SDS011;14177;51.520;6.764;2023-06-05T11:06:37;5.43;;;2.22;;
26502;SDS011;14177;51.520;6.764;2023-06-05T11:11:24;6.53;;;2.00;;
26502;SDS011;14177;51.520;6.764;2023-06-05T11:14:25;4.28;;;2.30;;
26502;SDS011;14177;51.520;6.764;2023-06-05T11:17:47;6.72;;;2.13;;
26502;SDS011;14177;51.520;6.764;2023-06-05T11:26:43;6.95;;;2.33;;
26502;SDS011;14177;51.520;6.764;2023-06-05T11:29:14;3.08;;;1.90;;
26502;SDS011;14177;51.520;6.764;2023-06-05T11:31:54;2.90;;;1.87;;
26502;SDS011;14177;51.520;6.764;2023-06-05T11:34:23;5.65;;;2.00;;
26502;SDS011;14177;51.520;6.764;2023-06-05T11:37:14;4.20;;;2.13;;
26502;SDS011;14177;51.520;6.764;2023-06-05T11:40:02;4.72;;;2.17;;
26502;SDS011;14177;51.520;6.764;2023-06-05T11:42:39;4.80;;;1.88;;
26502;SDS011;14177;51.520;6.764;2023-06-05T11:45:22;4.07;;;1.92;;
26502;SDS011;14177;51.520;6.764;2023-06-05T11:47:51;6.00;;;2.30;;
26502;SDS011;14177;51.520;6.764;2023-06-05T11:50:20;4.68;;;2.20;;
26502;SDS011;14177;51.520;6.764;2023-06-05T11:53:02;4.05;;;1.80;;
26502;SDS011;14177;51.520;6.764;2023-06-05T11:55:41;9.43;;;2.30;;
26502;SDS011;14177;51.520;6.764;2023-06-05T11:58:21;2.85;;;1.92;;
26502;SDS011;14177;51.520;6.764;2023-06-05T12:06:46;4.75;;;2.00;;
26502;SDS011;14177;51.520;6.764;2023-06-05T12:09:31;3.75;;;2.10;;
26502;SDS011;14177;51.520;6.764;2023-06-05T12:12:07;3.92;;;2.30;;
26502;SDS011;14177;51.520;6.764;2023-06-05T12:14:56;5.57;;;2.10;;
26502;SDS011;14177;51.520;6.764;2023-06-05T12:17:24;3.72;;;2.38;;
26502;SDS011;14177;51.520;6.764;2023-06-05T12:19:54;3.15;;;1.85;;
26502;SDS011;14177;51.520;6.764;2023-06-05T12:22:33;5.97;;;2.83;;
26502;SDS011;14177;51.520;6.764;2023-06-05T12:25:17;6.37;;;2.53;;
26502;SDS011;14177;51.520;6.764;2023-06-05T12:27:51;4.78;;;2.63;;
26502;SDS011;14177;51.520;6.764;2023-06-05T12:30:38;4.53;;;2.72;;
26502;SDS011;14177;51.520;6.764;2023-06-05T12:37:28;5.93;;;2.50;;
26502;SDS011;14177;51.520;6.764;2023-06-05T12:40:14;4.43;;;2.42;;
26502;SDS011;14177;51.520;6.764;2023-06-05T12:43:03;4.88;;;2.58;;
26502;SDS011;14177;51.520;6.764;2023-06-05T12:45:54;6.03;;;3.33;;
26502;SDS011;14177;51.520;6.764;2023-06-05T12:48:52;5.00;;;2.83;;
26502;SDS011;14177;51.520;6.764;2023-06-05T12:51:52;4.88;;;2.60;;
26502;SDS011;14177;51.520;6.764;2023-06-05T12:55:02;6.18;;;2.53;;
26502;SDS011;14177;51.520;6.764;2023-06-05T12:58:24;4.28;;;2.47;;
26502;SDS011;14177;51.520;6.764;2023-06-05T13:01:42;3.00;;;2.38;;
26502;SDS011;14177;51.520;6.764;2023-06-05T13:04:09;6.20;;;2.53;;
26502;SDS011;14177;51.520;6.764;2023-06-05T13:06:36;4.53;;;2.50;;
26502;SDS011;14177;51.520;6.764;2023-06-05T13:09:03;5.10;;;2.70;;
26502;SDS011;14177;51.520;6.764;2023-06-05T13:11:31;9.05;;;2.38;;
26502;SDS011;14177;51.520;6.764;2023-06-05T13:14:01;3.45;;;2.20;;
26502;SDS011;14177;51.520;6.764;2023-06-05T13:16:28;4.47;;;2.35;;
26502;SDS011;14177;51.520;6.764;2023-06-05T13:18:55;4.03;;;2.50;;
26502;SDS011;14177;51.520;6.764;2023-06-05T13:21:22;6.32;;;2.63;;
26502;SDS011;14177;51.520;6.764;2023-06-05T13:23:49;4.40;;;2.58;;
26502;SDS011;14177;51.520;6.764;2023-06-05T13:26:16;5.68;;;2.80;;
26502;SDS011;14177;51.520;6.764;2023-06-05T13:28:44;5.47;;;2.95;;
26502;SDS011;14177;51.520;6.764;2023-06-05T13:31:11;7.50;;;2.78;;
26502;SDS011;14177;51.520;6.764;2023-06-05T13:33:40;4.88;;;2.47;;
26502;SDS011;14177;51.520;6.764;2023-06-05T13:36:07;5.30;;;2.78;;
26502;SDS011;14177;51.520;6.764;2023-06-05T13:38:37;4.60;;;2.72;;
26502;SDS011;14177;51.520;6.764;2023-06-05T13:41:04;5.10;;;2.58;;
26502;SDS011;14177;51.520;6.764;2023-06-05T13:43:31;3.80;;;2.33;;
26502;SDS011;14177;51.520;6.764;2023-06-05T13:45:58;6.47;;;2.80;;
26502;SDS011;14177;51.520;6.764;2023-06-05T13:48:25;5.25;;;2.85;;
26502;SDS011;14177;51.520;6.764;2023-06-05T13:50:53;4.18;;;2.80;;
26502;SDS011;14177;51.520;6.764;2023-06-05T13:53:20;6.72;;;3.00;;
26502;SDS011;14177;51.520;6.764;2023-06-05T13:55:47;6.18;;;2.97;;
26502;SDS011;14177;51.520;6.764;2023-06-05T13:58:14;4.40;;;2.85;;
26502;SDS011;14177;51.520;6.764;2023-06-05T14:00:42;5.68;;;2.60;;
26502;SDS011;14177;51.520;6.764;2023-06-05T14:03:12;6.30;;;2.45;;
26502;SDS011;14177;51.520;6.764;2023-06-05T14:05:39;4.65;;;2.75;;
26502;SDS011;14177;51.520;6.764;2023-06-05T14:08:06;7.32;;;2.33;;
26502;SDS011;14177;51.520;6.764;2023-06-05T14:10:34;4.32;;;2.53;;
26502;SDS011;14177;51.520;6.764;2023-06-05T14:13:02;5.22;;;2.25;;
26502;SDS011;14177;51.520;6.764;2023-06-05T14:15:33;4.45;;;2.25;;
26502;SDS011;14177;51.520;6.764;2023-06-05T14:18:02;3.97;;;2.20;;
26502;SDS011;14177;51.520;6.764;2023-06-05T14:20:31;3.63;;;2.42;;
26502;SDS011;14177;51.520;6.764;2023-06-05T14:23:01;5.30;;;2.35;;
26502;SDS011;14177;51.520;6.764;2023-06-05T14:25:31;3.78;;;2.60;;
26502;SDS011;14177;51.520;6.764;2023-06-05T14:28:07;8.27;;;2.80;;
26502;SDS011;14177;51.520;6.764;2023-06-05T14:30:47;6.20;;;2.15;;
26502;SDS011;14177;51.520;6.764;2023-06-05T14:36:14;2.60;;;2.20;;
26502;SDS011;14177;51.520;6.764;2023-06-05T14:38:45;4.35;;;2.17;;
26502;SDS011;14177;51.520;6.764;2023-06-05T14:41:25;5.05;;;2.33;;
26502;SDS011;14177;51.520;6.764;2023-06-05T14:44:01;6.00;;;2.25;;
26502;SDS011;14177;51.520;6.764;2023-06-05T14:46:48;6.18;;;2.50;;
26502;SDS011;14177;51.520;6.764;2023-06-05T14:49:20;3.88;;;2.00;;
26502;SDS011;14177;51.520;6.764;2023-06-05T14:51:49;4.90;;;2.25;;
26502;SDS011;14177;51.520;6.764;2023-06-05T14:54:19;8.18;;;2.25;;
26502;SDS011;14177;51.520;6.764;2023-06-05T14:56:55;4.15;;;2.10;;
26502;SDS011;14177;51.520;6.764;2023-06-05T14:59:35;4.47;;;2.55;;
26502;SDS011;14177;51.520;6.764;2023-06-05T15:02:08;3.95;;;2.13;;
26502;SDS011;14177;51.520;6.764;2023-06-05T15:04:45;6.03;;;2.53;;
26502;SDS011;14177;51.520;6.764;2023-06-05T15:07:40;4.88;;;2.38;;
26502;SDS011;14177;51.520;6.764;2023-06-05T15:10:11;5.13;;;1.98;;
26502;SDS011;14177;51.520;6.764;2023-06-05T15:12:59;4.78;;;2.28;;
26502;SDS011;14177;51.520;6.764;2023-06-05T15:15:41;4.10;;;2.20;;
26502;SDS011;14177;51.520;6.764;2023-06-05T15:18:31;3.45;;;2.50;;
26502;SDS011;14177;51.520;6.764;2023-06-05T15:21:03;5.15;;;2.25;;
26502;SDS011;14177;51.520;6.764;2023-06-05T15:23:32;7.07;;;2.38;;
26502;SDS011;14177;51.520;6.764;2023-06-05T15:26:12;5.32;;;2.45;;
26502;SDS011;14177;51.520;6.764;2023-06-05T15:28:51;4.10;;;2.13;;
26502;SDS011;14177;51.520;6.764;2023-06-05T15:31:35;6.13;;;2.50;;
26502;SDS011;14177;51.520;6.764;2023-06-05T15:34:28;3.75;;;2.25;;
26502;SDS011;14177;51.520;6.764;2023-06-05T15:37:06;4.63;;;2.30;;
26502;SDS011;14177;51.520;6.764;2023-06-05T15:39:38;5.03;;;2.20;;
26502;SDS011;14177;51.520;6.764;2023-06-05T15:43:02;4.85;;;2.67;;
26502;SDS011;14177;51.520;6.764;2023-06-05T15:45:32;4.50;;;2.25;;
26502;SDS011;14177;51.520;6.764;2023-06-05T15:48:04;5.22;;;2.30;;
26502;SDS011;14177;51.520;6.764;2023-06-05T15:50:40;4.93;;;2.60;;
26502;SDS011;14177;51.520;6.764;2023-06-05T15:53:15;5.30;;;2.35;;
26502;SDS011;14177;51.520;6.764;2023-06-05T15:55:50;5.10;;;2.30;;
26502;SDS011;14177;51.520;6.764;2023-06-05T15:58:18;3.20;;;2.10;;
26502;SDS011;14177;51.520;6.764;2023-06-05T16:00:48;3.15;;;1.95;;
26502;SDS011;14177;51.520;6.764;2023-06-05T16:03:24;4.43;;;2.13;;
26502;SDS011;14177;51.520;6.764;2023-06-05T16:06:03;4.80;;;2.22;;
26502;SDS011;14177;51.520;6.764;2023-06-05T16:08:44;3.53;;;2.13;;
26502;SDS011;14177;51.520;6.764;2023-06-05T16:11:15;4.85;;;2.38;;
26502;SDS011;14177;51.520;6.764;2023-06-05T16:13:53;9.57;;;2.35;;
26502;SDS011;14177;51.520;6.764;2023-06-05T16:16:25;3.88;;;2.22;;
26502;SDS011;14177;51.520;6.764;2023-06-05T16:18:59;3.58;;;1.95;;
26502;SDS011;14177;51.520;6.764;2023-06-05T16:21:38;5.18;;;2.28;;
26502;SDS011;14177;51.520;6.764;2023-06-05T16:24:30;2.42;;;1.67;;
26502;SDS011;14177;51.520;6.764;2023-06-05T16:27:03;5.95;;;2.40;;
26502;SDS011;14177;51.520;6.764;2023-06-05T16:29:33;7.25;;;2.00;;
26502;SDS011;14177;51.520;6.764;2023-06-05T16:32:09;3.20;;;2.13;;
26502;SDS011;14177;51.520;6.764;2023-06-05T16:34:48;4.50;;;1.92;;
26502;SDS011;14177;51.520;6.764;2023-06-05T16:37:27;3.85;;;2.10;;
26502;SDS011;14177;51.520;6.764;2023-06-05T16:40:01;3.83;;;2.03;;
26502;SDS011;14177;51.520;6.764;2023-06-05T16:42:43;3.65;;;2.00;;
26502;SDS011;14177;51.520;6.764;2023-06-05T16:45:20;2.97;;;2.20;;
26502;SDS011;14177;51.520;6.764;2023-06-05T16:48:06;5.43;;;1.70;;
26502;SDS011;14177;51.520;6.764;2023-06-05T16:50:50;7.63;;;2.17;;
26502;SDS011;14177;51.520;6.764;2023-06-05T16:53:39;4.43;;;1.92;;
26502;SDS011;14177;51.520;6.764;2023-06-05T16:56:37;3.65;;;1.90;;
26502;SDS011;14177;51.520;6.764;2023-06-05T16:59:10;4.25;;;2.20;;
26502;SDS011;14177;51.520;6.764;2023-06-05T17:01:43;6.22;;;1.92;;
26502;SDS011;14177;51.520;6.764;2023-06-05T17:04:16;3.03;;;2.17;;